createdAt,value
2023-04-16T00:02:15.044Z,98.13
2023-04-16T00:04:42.802Z,98.29
2023-04-16T00:07:10.023Z,98.42
2023-04-16T00:09:37.252Z,98.75
2023-04-16T00:12:06.148Z,98.76
2023-04-16T00:14:33.331Z,98.21
2023-04-16T00:17:00.635Z,98.21
2023-04-16T00:19:28.114Z,97.79
2023-04-16T00:21:55.511Z,97.45
2023-04-16T00:24:22.710Z,96.99
2023-04-16T00:26:50.198Z,97.19
2023-04-16T00:29:17.418Z,97.11
2023-04-16T00:31:44.741Z,97.06
2023-04-16T00:34:12.362Z,97.28
2023-04-16T00:36:39.913Z,97.13
2023-04-16T00:39:07.364Z,97.17
2023-04-16T00:41:34.946Z,96.95
2023-04-16T00:44:02.214Z,97.31
2023-04-16T00:46:29.672Z,97.72
2023-04-16T00:48:57.679Z,98.32
2023-04-16T00:51:24.913Z,98.40
2023-04-16T00:53:52.582Z,98.86
2023-04-16T00:56:21.200Z,98.87
2023-04-16T00:58:49.131Z,98.46
2023-04-16T01:01:16.541Z,98.69
2023-04-16T01:03:47.407Z,98.62
2023-04-16T01:06:17.057Z,98.90
2023-04-16T01:08:45.373Z,98.80
2023-04-16T01:11:15.101Z,98.78
2023-04-16T01:13:42.331Z,98.54
2023-04-16T01:16:11.708Z,98.78
2023-04-16T01:18:39.214Z,99.63
2023-04-16T01:21:06.673Z,99.12
2023-04-16T01:23:34.198Z,99.50
2023-04-16T01:26:02.676Z,100.00
2023-04-16T01:28:29.850Z,99.94
2023-04-16T01:30:57.315Z,100.00
2023-04-16T01:33:24.935Z,100.00
2023-04-16T01:35:52.495Z,100.00
2023-04-16T01:38:19.922Z,100.00
2023-04-16T01:40:47.054Z,99.97
2023-04-16T01:43:14.196Z,100.00
2023-04-16T01:45:42.836Z,99.39
2023-04-16T01:48:12.318Z,99.07
2023-04-16T01:50:39.462Z,98.87
2023-04-16T01:53:06.928Z,98.49
2023-04-16T01:55:34.442Z,97.79
2023-04-16T01:58:01.635Z,97.73
2023-04-16T02:00:31.403Z,97.68
2023-04-16T02:02:59.574Z,97.64
2023-04-16T02:05:27.028Z,97.66
2023-04-16T02:07:54.356Z,97.37
2023-04-16T02:10:22.203Z,97.52
2023-04-16T02:12:49.884Z,97.54
2023-04-16T02:15:17.307Z,98.25
2023-04-16T02:17:46.822Z,98.14
2023-04-16T02:20:14.337Z,98.27
2023-04-16T02:22:43.421Z,98.48
2023-04-16T02:25:11.635Z,98.56
2023-04-16T02:27:39.104Z,98.11
2023-04-16T02:30:07.477Z,98.04
2023-04-16T02:32:34.830Z,98.31
2023-04-16T02:35:04.119Z,98.21
2023-04-16T02:37:31.249Z,98.64
2023-04-16T02:39:58.603Z,98.88
2023-04-16T02:42:26.124Z,99.35
2023-04-16T02:44:53.886Z,98.91
2023-04-16T02:47:21.146Z,98.93
2023-04-16T02:49:48.631Z,99.12
2023-04-16T02:52:16.015Z,99.47
2023-04-16T02:54:43.217Z,99.59
2023-04-16T02:57:11.499Z,99.27
2023-04-16T02:59:38.636Z,99.57
2023-04-16T03:02:05.980Z,99.94
2023-04-16T03:04:33.514Z,99.92
2023-04-16T03:07:00.991Z,99.56
2023-04-16T03:09:28.134Z,99.81
2023-04-16T03:11:56.807Z,99.64
2023-04-16T03:14:23.898Z,99.76
2023-04-16T03:16:51.090Z,100.00
2023-04-16T03:19:18.629Z,100.00
2023-04-16T03:21:45.955Z,99.49
2023-04-16T03:24:13.530Z,99.75
2023-04-16T03:26:40.998Z,99.72
2023-04-16T03:29:08.700Z,99.83
2023-04-16T03:31:36.358Z,98.19
2023-04-16T03:34:03.969Z,98.03
2023-04-16T03:36:31.432Z,98.26
2023-04-16T03:38:58.643Z,99.19
2023-04-16T03:41:27.038Z,99.29
2023-04-16T03:43:54.493Z,100.00
2023-04-16T03:46:21.660Z,99.84
2023-04-16T03:48:49.270Z,100.00
2023-04-16T03:51:16.595Z,100.00
2023-04-16T03:53:43.809Z,100.00
2023-04-16T03:56:11.306Z,100.00
2023-04-16T03:58:38.516Z,100.00
2023-04-16T04:01:05.944Z,100.00
2023-04-16T04:03:33.605Z,99.83
2023-04-16T04:06:02.069Z,99.15
2023-04-16T04:08:29.400Z,100.00
2023-04-16T04:10:56.910Z,100.00
2023-04-16T04:13:24.491Z,100.00
2023-04-16T04:15:51.921Z,100.00
2023-04-16T04:18:19.846Z,100.00
2023-04-16T04:20:47.057Z,100.00
2023-04-16T04:23:14.524Z,100.00
2023-04-16T04:25:42.028Z,100.00
2023-04-16T04:28:09.502Z,100.00
2023-04-16T04:30:36.746Z,100.00
2023-04-16T04:33:05.571Z,100.00
2023-04-16T04:35:33.298Z,100.00
2023-04-16T04:38:03.369Z,99.30
2023-04-16T04:40:31.503Z,100.00
2023-04-16T04:42:58.856Z,100.00
2023-04-16T04:45:26.704Z,100.00
2023-04-16T04:47:54.482Z,100.00
2023-04-16T04:50:21.987Z,100.00
2023-04-16T04:52:49.198Z,100.00
2023-04-16T04:55:16.728Z,100.00
2023-04-16T04:57:43.945Z,100.00
2023-04-16T05:00:11.566Z,100.00
2023-04-16T05:02:39.340Z,100.00
2023-04-16T05:05:06.933Z,100.00
2023-04-16T05:07:34.411Z,100.00
2023-04-16T05:10:01.949Z,100.00
2023-04-16T05:12:29.181Z,100.00
2023-04-16T05:14:56.406Z,100.00
2023-04-16T05:17:23.974Z,100.00
2023-04-16T05:19:52.361Z,100.00
2023-04-16T05:22:19.528Z,100.00
2023-04-16T05:24:47.006Z,100.00
2023-04-16T05:27:14.177Z,100.00
2023-04-16T05:29:41.365Z,100.00
2023-04-16T05:32:09.090Z,100.00
2023-04-16T05:34:36.256Z,100.00
2023-04-16T05:37:03.450Z,100.00
2023-04-16T05:39:30.967Z,100.00
2023-04-16T05:41:58.184Z,100.00
2023-04-16T05:44:25.877Z,100.00
2023-04-16T05:46:53.374Z,98.42
2023-04-16T05:49:21.469Z,97.29
2023-04-16T05:51:50.722Z,96.37
2023-04-16T05:54:18.520Z,94.73
2023-04-16T05:56:45.810Z,94.78
2023-04-16T05:59:13.022Z,94.58
2023-04-16T06:01:41.121Z,94.45
2023-04-16T06:04:08.760Z,94.55
2023-04-16T06:06:37.473Z,94.81
2023-04-16T06:09:04.833Z,93.99
2023-04-16T06:11:33.590Z,93.83
2023-04-16T06:14:01.769Z,93.55
2023-04-16T06:16:29.041Z,92.52
2023-04-16T06:18:56.678Z,93.20
2023-04-16T06:21:23.990Z,92.94
2023-04-16T06:23:51.158Z,93.60
2023-04-16T06:26:18.779Z,96.41
2023-04-16T06:28:45.965Z,95.61
2023-04-16T06:31:13.213Z,95.24
2023-04-16T06:33:40.727Z,93.96
2023-04-16T06:36:07.912Z,95.86
2023-04-16T06:38:36.331Z,96.08
2023-04-16T06:41:03.884Z,93.52
2023-04-16T06:43:33.481Z,93.18
2023-04-16T06:46:00.757Z,93.21
2023-04-16T06:48:28.363Z,93.37
2023-04-16T06:50:56.311Z,94.41
2023-04-16T06:53:24.070Z,91.26
2023-04-16T06:55:51.806Z,90.25
2023-04-16T06:58:19.040Z,89.86
2023-04-16T07:00:46.274Z,90.70
2023-04-16T07:03:14.416Z,89.00
2023-04-16T07:05:41.779Z,89.47
2023-04-16T07:08:08.880Z,90.62
2023-04-16T07:10:36.412Z,89.80
2023-04-16T07:13:06.398Z,89.49
2023-04-16T07:15:33.534Z,89.57
2023-04-16T07:18:00.979Z,89.77
2023-04-16T07:20:28.177Z,88.95
2023-04-16T07:22:55.354Z,87.89
2023-04-16T07:25:22.885Z,88.15
2023-04-16T07:27:50.055Z,88.80
2023-04-16T07:30:17.228Z,86.14
2023-04-16T07:32:44.694Z,85.98
2023-04-16T07:35:11.921Z,85.94
2023-04-16T07:37:39.012Z,86.47
2023-04-16T07:40:07.537Z,85.51
2023-04-16T07:42:36.945Z,85.89
2023-04-16T07:45:04.339Z,84.04
2023-04-16T07:47:31.785Z,86.40
2023-04-16T07:49:58.898Z,83.55
2023-04-16T07:52:26.820Z,83.38
2023-04-16T07:54:54.198Z,84.29
2023-04-16T07:57:21.408Z,85.92
2023-04-16T07:59:48.563Z,85.52
2023-04-16T08:02:19.640Z,83.29
2023-04-16T08:04:47.411Z,83.44
2023-04-16T08:07:14.635Z,82.41
2023-04-16T08:09:49.533Z,82.51
2023-04-16T08:12:20.944Z,83.00
2023-04-16T08:14:48.493Z,83.96
2023-04-16T08:17:16.230Z,81.68
2023-04-16T08:19:45.152Z,81.44
2023-04-16T08:22:13.464Z,79.81
2023-04-16T08:24:40.669Z,79.52
2023-04-16T08:27:17.995Z,80.49
2023-04-16T08:29:46.049Z,80.35
2023-04-16T08:32:13.529Z,78.60
2023-04-16T08:34:41.976Z,80.31
2023-04-16T08:37:09.598Z,78.86
2023-04-16T08:39:37.743Z,77.51
2023-04-16T08:42:06.112Z,77.53
2023-04-16T08:44:35.341Z,77.20
2023-04-16T08:47:03.628Z,75.68
2023-04-16T08:49:31.909Z,74.43
2023-04-16T08:51:59.017Z,74.20
2023-04-16T08:54:39.470Z,75.12
2023-04-16T08:57:07.511Z,74.32
2023-04-16T08:59:35.875Z,74.24
2023-04-16T09:02:03.266Z,74.37
2023-04-16T09:04:31.493Z,72.62
2023-04-16T09:06:59.591Z,76.32
2023-04-16T09:09:27.550Z,75.22
2023-04-16T09:11:54.988Z,73.07
2023-04-16T09:14:22.535Z,74.63
2023-04-16T09:16:50.024Z,73.78
2023-04-16T09:19:17.410Z,72.48
2023-04-16T09:21:47.002Z,71.44
2023-04-16T09:24:14.371Z,72.25
2023-04-16T09:26:43.517Z,72.90
2023-04-16T09:29:11.295Z,73.99
2023-04-16T09:31:38.741Z,75.29
2023-04-16T09:34:06.848Z,72.75
2023-04-16T09:36:35.658Z,71.94
2023-04-16T09:39:03.892Z,70.93
2023-04-16T09:41:32.519Z,70.33
2023-04-16T09:44:04.622Z,69.05
2023-04-16T09:46:34.590Z,70.50
2023-04-16T09:49:08.336Z,71.48
2023-04-16T09:51:41.391Z,72.58
2023-04-16T09:54:09.507Z,75.46
2023-04-16T09:56:41.708Z,73.23
2023-04-16T09:59:17.114Z,71.39
2023-04-16T10:01:49.098Z,70.83
2023-04-16T10:04:16.971Z,73.12
2023-04-16T10:06:44.635Z,73.91
2023-04-16T10:09:12.342Z,74.73
2023-04-16T10:11:40.063Z,73.24
2023-04-16T10:14:07.325Z,75.06
2023-04-16T10:16:35.348Z,72.89
2023-04-16T10:19:03.068Z,73.80
2023-04-16T10:21:34.053Z,72.03
2023-04-16T10:24:01.928Z,72.62
2023-04-16T10:26:30.582Z,71.33
2023-04-16T10:28:58.718Z,72.41
2023-04-16T10:31:26.030Z,70.16
2023-04-16T10:33:53.797Z,71.25
2023-04-16T10:36:24.640Z,70.39
2023-04-16T10:38:52.720Z,72.07
2023-04-16T10:41:21.138Z,69.60
2023-04-16T10:43:50.369Z,69.83
2023-04-16T10:46:31.728Z,68.50
2023-04-16T10:49:13.389Z,67.69
2023-04-16T10:51:40.997Z,67.17
2023-04-16T10:54:08.318Z,65.75
2023-04-16T10:56:37.325Z,67.36
2023-04-16T10:59:06.296Z,64.75
2023-04-16T11:01:35.790Z,64.19
2023-04-16T11:04:21.299Z,66.05
2023-04-16T11:07:16.469Z,65.56
2023-04-16T11:10:05.218Z,65.62
2023-04-16T11:12:37.617Z,65.85
2023-04-16T11:15:06.375Z,66.73
2023-04-16T11:17:40.794Z,68.06
2023-04-16T11:20:17.855Z,66.46
2023-04-16T11:22:51.143Z,64.48
2023-04-16T11:25:31.865Z,64.70
2023-04-16T11:27:59.735Z,64.67
2023-04-16T11:30:34.625Z,61.97
2023-04-16T11:33:06.015Z,63.42
2023-04-16T11:35:33.519Z,61.67
2023-04-16T11:38:00.724Z,61.30
2023-04-16T11:40:31.722Z,60.24
2023-04-16T11:43:03.375Z,56.99
2023-04-16T11:45:30.911Z,55.85
2023-04-16T11:47:58.145Z,54.75
2023-04-16T11:50:27.292Z,53.76
2023-04-16T11:52:56.517Z,54.33
2023-04-16T11:55:24.235Z,54.36
2023-04-16T11:57:52.278Z,54.73
2023-04-16T12:00:23.985Z,52.85
2023-04-16T12:02:55.180Z,52.84
2023-04-16T12:05:39.803Z,54.35
2023-04-16T12:08:11.512Z,51.49
2023-04-16T12:10:59.689Z,52.00
2023-04-16T12:13:27.131Z,53.82
2023-04-16T12:15:56.111Z,52.62
2023-04-16T12:18:26.120Z,53.16
2023-04-16T12:20:53.630Z,53.35
2023-04-16T12:23:23.844Z,51.79
2023-04-16T12:25:52.106Z,55.43
2023-04-16T12:28:30.355Z,53.75
2023-04-16T12:30:57.670Z,55.29
2023-04-16T12:33:25.657Z,56.80
2023-04-16T12:35:52.900Z,59.11
2023-04-16T12:38:22.831Z,59.53
2023-04-16T12:40:52.108Z,60.52
2023-04-16T12:43:21.516Z,58.80
2023-04-16T12:45:49.418Z,59.89
2023-04-16T12:48:17.041Z,61.33
2023-04-16T12:50:44.562Z,61.50
2023-04-16T12:53:11.837Z,61.75
2023-04-16T12:55:39.344Z,61.65
2023-04-16T12:58:06.896Z,58.20
2023-04-16T13:00:33.990Z,56.72
2023-04-16T13:03:01.569Z,55.93
2023-04-16T13:05:28.747Z,52.34
2023-04-16T13:07:55.849Z,53.87
2023-04-16T13:10:23.631Z,50.44
2023-04-16T13:12:50.826Z,52.80
2023-04-16T13:15:18.106Z,51.62
2023-04-16T13:17:46.172Z,50.05
2023-04-16T13:20:13.416Z,49.86
2023-04-16T13:22:40.827Z,49.08
2023-04-16T13:25:08.939Z,50.64
2023-04-16T13:27:36.274Z,48.73
2023-04-16T13:30:03.587Z,51.64
2023-04-16T13:32:31.873Z,49.74
2023-04-16T13:34:59.084Z,50.18
2023-04-16T13:37:26.229Z,50.04
2023-04-16T13:39:53.649Z,48.97
2023-04-16T13:42:20.802Z,46.55
2023-04-16T13:44:49.358Z,46.32
2023-04-16T13:47:17.012Z,48.81
2023-04-16T13:49:44.553Z,48.15
2023-04-16T13:52:11.798Z,46.30
2023-04-16T13:54:40.537Z,45.44
2023-04-16T13:57:19.874Z,47.17
2023-04-16T13:59:47.550Z,43.30
2023-04-16T14:02:14.879Z,45.42
2023-04-16T14:04:42.405Z,48.16
2023-04-16T14:07:09.563Z,47.54
2023-04-16T14:09:39.222Z,47.51
2023-04-16T14:12:07.000Z,44.89
2023-04-16T14:14:34.183Z,46.95
2023-04-16T14:17:03.245Z,47.36
2023-04-16T14:19:31.007Z,46.99
2023-04-16T14:21:58.218Z,51.58
2023-04-16T14:24:25.331Z,51.94
2023-04-16T14:26:52.849Z,53.58
2023-04-16T14:29:20.232Z,53.74
2023-04-16T14:31:47.496Z,53.64
2023-04-16T14:34:15.035Z,53.21
2023-04-16T14:36:42.774Z,53.49
2023-04-16T14:39:11.386Z,52.90
2023-04-16T14:41:39.100Z,52.45
2023-04-16T14:44:06.853Z,53.30
2023-04-16T14:46:38.567Z,54.25
2023-04-16T14:49:06.338Z,52.89
2023-04-16T14:51:34.045Z,53.09
2023-04-16T14:54:01.468Z,52.64
2023-04-16T14:56:28.989Z,52.62
2023-04-16T14:58:56.200Z,53.28
2023-04-16T15:01:23.490Z,52.45
2023-04-16T15:03:51.217Z,52.04
2023-04-16T15:06:19.051Z,52.67
2023-04-16T15:08:46.289Z,53.19
2023-04-16T15:11:13.717Z,53.19
2023-04-16T15:13:40.811Z,52.74
2023-04-16T15:16:08.025Z,53.55
2023-04-16T15:18:35.945Z,52.50
2023-04-16T15:21:03.938Z,51.15
2023-04-16T15:23:31.558Z,50.39
2023-04-16T15:25:59.015Z,52.37
2023-04-16T15:28:26.205Z,53.25
2023-04-16T15:30:53.509Z,52.75
2023-04-16T15:33:21.651Z,52.72
2023-04-16T15:35:50.815Z,52.12
2023-04-16T15:38:18.715Z,52.72
2023-04-16T15:40:46.229Z,52.38
2023-04-16T15:43:13.355Z,52.03
2023-04-16T15:45:40.528Z,50.90
2023-04-16T15:48:08.161Z,51.78
2023-04-16T15:50:35.818Z,50.70
2023-04-16T15:53:03.534Z,51.03
2023-04-16T15:55:31.088Z,49.86
2023-04-16T15:57:58.245Z,50.86
2023-04-16T16:00:25.939Z,49.98
2023-04-16T16:02:53.480Z,50.99
2023-04-16T16:05:21.156Z,51.93
2023-04-16T16:07:48.436Z,52.19
2023-04-16T16:10:16.041Z,51.01
2023-04-16T16:12:43.283Z,52.11
2023-04-16T16:15:11.205Z,51.50
2023-04-16T16:17:39.274Z,50.35
2023-04-16T16:20:10.050Z,49.88
2023-04-16T16:22:38.340Z,49.48
2023-04-16T16:25:07.017Z,50.04
2023-04-16T16:27:34.188Z,50.11
2023-04-16T16:30:01.493Z,49.41
2023-04-16T16:32:29.053Z,50.00
2023-04-16T16:34:56.178Z,49.72
2023-04-16T16:37:25.367Z,49.97
2023-04-16T16:39:52.759Z,50.52
2023-04-16T16:42:19.976Z,50.19
2023-04-16T16:44:47.810Z,51.71
2023-04-16T16:47:15.480Z,52.95
2023-04-16T16:49:42.594Z,53.85
2023-04-16T16:52:09.686Z,54.84
2023-04-16T16:54:37.126Z,55.78
2023-04-16T16:57:04.313Z,57.31
2023-04-16T16:59:31.444Z,57.70
2023-04-16T17:01:58.881Z,58.83
2023-04-16T17:04:26.048Z,58.38
2023-04-16T17:06:53.225Z,59.86
2023-04-16T17:09:20.731Z,60.36
2023-04-16T17:11:47.932Z,61.61
2023-04-16T17:14:15.253Z,61.21
2023-04-16T17:16:42.680Z,62.00
2023-04-16T17:19:10.111Z,63.27
2023-04-16T17:21:37.358Z,62.95
2023-04-16T17:24:04.813Z,63.43
2023-04-16T17:26:32.030Z,63.55
2023-04-16T17:28:59.976Z,63.93
2023-04-16T17:31:27.772Z,64.04
2023-04-16T17:33:55.056Z,64.17
2023-04-16T17:36:23.275Z,64.72
2023-04-16T17:38:50.857Z,65.19
2023-04-16T17:41:18.099Z,66.56
2023-04-16T17:43:49.030Z,67.67
2023-04-16T17:46:16.624Z,67.29
2023-04-16T17:48:48.817Z,67.75
2023-04-16T17:51:19.063Z,68.31
2023-04-16T17:53:46.618Z,68.64
2023-04-16T17:56:14.161Z,68.31
2023-04-16T17:58:41.274Z,68.56
2023-04-16T18:01:08.888Z,68.91
2023-04-16T18:03:39.857Z,69.43
2023-04-16T18:06:07.180Z,69.82
2023-04-16T18:08:36.579Z,70.36
2023-04-16T18:11:08.491Z,71.04
2023-04-16T18:13:35.794Z,71.72
2023-04-16T18:16:03.272Z,72.49
2023-04-16T18:18:33.711Z,73.26
2023-04-16T18:21:01.042Z,73.66
2023-04-16T18:23:28.195Z,74.18
2023-04-16T18:25:55.921Z,74.32
2023-04-16T18:28:24.543Z,75.23
2023-04-16T18:30:54.111Z,76.14
2023-04-16T18:33:44.416Z,76.54
2023-04-16T18:36:11.802Z,78.23
2023-04-16T18:38:46.546Z,78.17
2023-04-16T18:41:24.552Z,79.20
2023-04-16T18:43:52.070Z,79.89
2023-04-16T18:46:19.354Z,79.23
2023-04-16T18:48:46.636Z,79.43
2023-04-16T18:51:16.150Z,79.55
2023-04-16T18:53:45.590Z,79.43
2023-04-16T18:56:13.268Z,79.67
2023-04-16T18:58:40.834Z,79.25
2023-04-16T19:01:11.304Z,78.86
2023-04-16T19:03:39.033Z,79.16
2023-04-16T19:06:06.740Z,78.83
2023-04-16T19:08:34.088Z,78.58
2023-04-16T19:11:02.740Z,77.92
2023-04-16T19:13:32.263Z,77.64
2023-04-16T19:16:01.170Z,77.94
2023-04-16T19:18:28.468Z,77.21
2023-04-16T19:21:02.428Z,76.79
2023-04-16T19:23:29.817Z,76.39
2023-04-16T19:25:57.792Z,76.20
2023-04-16T19:28:25.650Z,76.28
2023-04-16T19:30:53.575Z,75.82
2023-04-16T19:33:21.179Z,75.78
2023-04-16T19:35:48.461Z,75.08
2023-04-16T19:38:15.701Z,74.66
2023-04-16T19:40:50.945Z,74.60
2023-04-16T19:43:18.133Z,74.84
2023-04-16T19:45:46.645Z,75.07
2023-04-16T19:48:14.489Z,74.59
2023-04-16T19:50:42.305Z,75.15
2023-04-16T19:53:11.161Z,76.17
2023-04-16T19:55:42.052Z,75.97
2023-04-16T19:58:09.828Z,76.76
2023-04-16T20:00:38.416Z,76.28
2023-04-16T20:03:07.115Z,76.29
2023-04-16T20:05:34.482Z,76.17
2023-04-16T20:08:01.705Z,76.34
2023-04-16T20:10:31.264Z,76.18
2023-04-16T20:12:58.876Z,75.91
2023-04-16T20:15:26.350Z,75.87
2023-04-16T20:17:55.327Z,75.35
2023-04-16T20:20:23.617Z,75.58
2023-04-16T20:22:50.903Z,75.03
2023-04-16T20:25:19.292Z,75.17
2023-04-16T20:27:46.649Z,74.70
2023-04-16T20:30:14.216Z,74.91
2023-04-16T20:32:41.736Z,75.36
2023-04-16T20:35:11.351Z,75.45
2023-04-16T20:37:39.052Z,74.95
2023-04-16T20:40:08.773Z,75.05
2023-04-16T20:42:35.968Z,75.16
2023-04-16T20:45:03.291Z,74.83
2023-04-16T20:47:30.777Z,75.10
2023-04-16T20:49:58.182Z,74.45
2023-04-16T20:52:25.433Z,74.39
2023-04-16T20:54:53.027Z,75.31
2023-04-16T20:57:20.186Z,74.54
2023-04-16T20:59:47.282Z,74.04
2023-04-16T21:02:14.894Z,73.90
2023-04-16T21:04:42.381Z,73.53
2023-04-16T21:07:09.634Z,73.56
2023-04-16T21:09:37.195Z,73.74
2023-04-16T21:12:04.509Z,73.70
2023-04-16T21:14:33.717Z,73.30
2023-04-16T21:17:01.157Z,73.00
2023-04-16T21:19:28.263Z,72.97
2023-04-16T21:21:55.356Z,72.99
2023-04-16T21:24:23.064Z,73.40
2023-04-16T21:26:50.323Z,73.21
2023-04-16T21:29:17.696Z,73.19
2023-04-16T21:31:45.179Z,73.52
2023-04-16T21:34:12.327Z,74.04
2023-04-16T21:36:39.434Z,73.85
2023-04-16T21:39:06.853Z,73.48
2023-04-16T21:41:36.376Z,73.30
2023-04-16T21:44:03.570Z,73.06
2023-04-16T21:46:31.005Z,72.22
2023-04-16T21:48:58.177Z,72.17
2023-04-16T21:51:29.754Z,72.29
2023-04-16T21:53:57.226Z,71.80
2023-04-16T21:56:24.998Z,71.50
2023-04-16T21:58:52.089Z,71.75
2023-04-16T22:01:19.546Z,71.43
2023-04-16T22:03:50.605Z,71.17
2023-04-16T22:06:18.260Z,71.22
2023-04-16T22:08:45.477Z,71.20
2023-04-16T22:11:12.956Z,71.35
2023-04-16T22:13:42.334Z,71.67
2023-04-16T22:16:11.519Z,71.54
2023-04-16T22:18:41.153Z,71.75
2023-04-16T22:21:08.356Z,72.29
2023-04-16T22:23:35.563Z,71.61
2023-04-16T22:26:04.129Z,71.22
2023-04-16T22:28:31.255Z,70.76
2023-04-16T22:30:58.452Z,70.63
2023-04-16T22:33:29.174Z,70.75
2023-04-16T22:35:56.291Z,70.91
2023-04-16T22:38:23.719Z,70.74
2023-04-16T22:40:51.126Z,70.25
2023-04-16T22:43:18.360Z,70.67
2023-04-16T22:45:48.757Z,70.04
2023-04-16T22:48:16.416Z,69.83
2023-04-16T22:50:48.632Z,70.07
2023-04-16T22:53:16.230Z,69.91
2023-04-16T22:55:43.353Z,69.80
2023-04-16T22:58:10.448Z,69.97
2023-04-16T23:00:38.097Z,70.29
2023-04-16T23:03:05.373Z,70.01
2023-04-16T23:05:32.637Z,69.85
2023-04-16T23:08:01.063Z,70.27
2023-04-16T23:10:28.148Z,69.88
2023-04-16T23:12:55.239Z,69.67
2023-04-16T23:15:22.689Z,69.56
2023-04-16T23:17:49.975Z,69.45
2023-04-16T23:20:17.289Z,70.06
2023-04-16T23:22:44.812Z,70.48
2023-04-16T23:25:12.047Z,71.03
2023-04-16T23:27:39.138Z,71.18
2023-04-16T23:30:08.773Z,71.37
2023-04-16T23:32:36.239Z,71.01
2023-04-16T23:35:03.468Z,71.12
2023-04-16T23:37:30.903Z,70.87
2023-04-16T23:39:58.018Z,71.16
2023-04-16T23:42:25.202Z,71.51
2023-04-16T23:44:52.644Z,71.05
2023-04-16T23:47:19.842Z,71.45
2023-04-16T23:49:46.994Z,71.40
2023-04-16T23:52:14.432Z,71.45
2023-04-16T23:54:41.539Z,70.80
2023-04-16T23:57:08.668Z,71.55
2023-04-16T23:59:36.046Z,71.37
